LFRK/CFR METAR and TAF weather

Enter ICAO airport designator
Station Type Date Time Source
LFRK METAR 2021/09/20 06:00 UTC NOAA

LFRK 200600Z AUTO 29007KT 9999 SCT017/// OVC023/// ///TCU 14/13 Q1019 TEMPO 3000 SHRA BKN009 BKN020TCU


Station Type Date Time Source
LFRK Decoded METAR 2021/09/20 06:00 UTC NOAA

Caen, France (LFRK) 49-11N 000-27W 67M
Sep 20, 2021 - 02:00 AM EDT / 2021.09.20 0600 UTC
Wind: from the WNW (290 degrees) at 8 MPH (7 KT):0
Visibility: greater than 7 mile(s):0
Sky conditions: overcast
Weather: Towering cumulus clouds observed
Temperature: 57 F (14 C)
Dew Point: 55 F (13 C)
Relative Humidity: 93%
Pressure (altimeter): 30.09 in. Hg (1019 hPa)
ob: LFRK 200600Z AUTO 29007KT 9999 SCT017/// OVC023/// ///TCU 14/13 Q1019 TEMPO 3000 SHRA BKN009 BKN020TCU
cycle: 6

Station Type Date Time Source
LFRK TAF 2020/06/02 06:24 UTC NOAA

TAF LFRK 020500Z 0206/0306 33004KT CAVOK

Example: see airport list